Insula Oya 2 — FUKI — position and weather

sailwx.info

Track history (hours):
 
Tides and Currents Weather Stations Pressure Air Temp Water Temp Dewpoint Dewpoint Depression Visibility Wind Speed Wind Dir Waves Ship Positions

Insula Oya 2

Last reported at 2016-May-26 06:22 UTC. Time now 2016-May-26 06:54 UTC.
Position N 46°44' W 002°21'.

Length 50 m; draft 2.5 m.

Type: Passenger vessel. MMSI: 227004900.

Date/timePositionNaut miles runAvg speedWind from/ knotsBaromVisibWave heightAir tempDewpointWater temp
2016-May-26 06:22N 46°44' W 002°21'1113.3
2016-May-26 05:33N 46°53' W 002°12'3 2.6
2016-May-26 04:33N 46°54' W 002°08'0 0.0
2016-May-26 03:32N 46°54' W 002°08'0 0.0
2016-May-26 02:32N 46°54' W 002°08'0 0.0
2016-May-26 01:32N 46°54' W 002°08'0 0.0
2016-May-26 00:32N 46°54' W 002°08'0 0.0
2016-May-25 23:32N 46°54' W 002°08'0 0.0
2016-May-25 22:32N 46°54' W 002°08'0 0.0
2016-May-25 21:32N 46°54' W 002°08'0 0.0
2016-May-25 20:32N 46°54' W 002°08'0 0.0
2016-May-25 19:32N 46°54' W 002°08'0 0.0
2016-May-25 18:32N 46°54' W 002°08'0 0.0
2016-May-25 17:32N 46°54' W 002°08'0 0.0
2016-May-25 16:21N 46°54' W 002°08'9 0.9
2016-May-25 06:04N 46°47' W 002°17'713.7
2016-May-25 05:33N 46°53' W 002°12'2 2.5
2016-May-25 04:33N 46°54' W 002°08'0 0.0
2016-May-25 03:32N 46°54' W 002°08'0 0.0
2016-May-25 02:32N 46°54' W 002°08'0 0.0
2016-May-25 01:32N 46°54' W 002°08'0 0.0
2016-May-25 00:32N 46°54' W 002°08'0 0.0
2016-May-24 23:32N 46°54' W 002°08'0 0.0
2016-May-24 22:32N 46°54' W 002°08'0 0.0
2016-May-24 21:32N 46°54' W 002°08'0 0.0
2016-May-24 20:32N 46°54' W 002°08'0 0.0
2016-May-24 19:32N 46°54' W 002°08'0 0.0
2016-May-24 18:32N 46°54' W 002°08'0 0.0
2016-May-24 17:32N 46°54' W 002°08'0 0.0
2016-May-24 16:32N 46°54' W 002°08'1 0.9
2016-May-24 15:33N 46°54' W 002°10'9 1.0
2016-May-24 06:08N 46°46' W 002°18'813.8
2016-May-24 05:34N 46°53' W 002°12'2 2.3
2016-May-24 04:34N 46°54' W 002°08'0 0.0
2016-May-24 03:32N 46°54' W 002°08'0 0.0
2016-May-24 02:32N 46°54' W 002°08'0 0.0
2016-May-24 01:29N 46°54' W 002°08'0 0.0
2016-May-24 00:32N 46°54' W 002°08'0 0.0
2016-May-23 23:32N 46°54' W 002°08'0 0.0
2016-May-23 22:32N 46°54' W 002°08'0 0.0
2016-May-23 21:29N 46°54' W 002°08'0 0.0
2016-May-23 20:32N 46°54' W 002°08'0 0.0
2016-May-23 19:32N 46°54' W 002°08'0 0.0
2016-May-23 18:32N 46°54' W 002°08'0 0.0
2016-May-23 17:32N 46°54' W 002°08'0 0.0
2016-May-23 16:20N 46°54' W 002°08'0 0.0
2016-May-23 15:32N 46°54' W 002°08'6 6.6
2016-May-23 14:33N 46°49' W 002°15'  
2016-May-21 05:33N 46°45' W 002°20'1211.8
2016-May-21 04:34N 46°54' W 002°08'0 0.0
2016-May-21 03:34N 46°54' W 002°08'0 0.0
2016-May-21 02:31N 46°54' W 002°08'0 0.0
2016-May-21 01:31N 46°54' W 002°08'0 0.0
2016-May-21 00:31N 46°54' W 002°08'0 0.0
2016-May-20 23:31N 46°54' W 002°08'0 0.0
2016-May-20 22:31N 46°54' W 002°08'0 0.0
2016-May-20 21:31N 46°54' W 002°08'0 0.0
2016-May-20 20:31N 46°54' W 002°08'0 0.0
2016-May-20 19:31N 46°54' W 002°08'0 0.0
2016-May-20 18:31N 46°54' W 002°08'0 0.0
2016-May-20 17:28N 46°54' W 002°08'0 0.0
2016-May-20 16:31N 46°54' W 002°08'0 0.0
2016-May-20 15:28N 46°54' W 002°08'0 0.0
2016-May-20 14:28N 46°54' W 002°08'7 7.0
2016-May-20 13:32N 46°49' W 002°15'0 0.0
2016-May-20 04:33N 46°49' W 002°15'7 6.8
2016-May-20 03:34N 46°54' W 002°08'0 0.0
2016-May-20 02:31N 46°54' W 002°08'0 0.0
2016-May-20 01:31N 46°54' W 002°08'0 0.0
2016-May-20 00:28N 46°54' W 002°08'0 0.0
2016-May-19 23:31N 46°54' W 002°08'0 0.0
2016-May-19 22:31N 46°54' W 002°08'0 0.0
2016-May-19 21:31N 46°54' W 002°08'0 0.0
2016-May-19 20:31N 46°54' W 002°08'0 0.0
2016-May-19 19:31N 46°54' W 002°08'0 0.0
2016-May-19 18:34N 46°54' W 002°08'0 0.0
2016-May-19 17:31N 46°54' W 002°08'2 0.4
2016-May-19 12:29N 46°53' W 002°11'2 2.0
2016-May-19 11:33N 46°54' W 002°08'0 0.0
2016-May-19 10:33N 46°54' W 002°08'0 0.0
2016-May-19 09:33N 46°54' W 002°08'0 0.0
2016-May-19 08:30N 46°54' W 002°08'0 0.0
2016-May-19 07:33N 46°54' W 002°08'0 0.0
2016-May-19 06:15N 46°54' W 002°08'0 0.0
2016-May-19 05:33N 46°54' W 002°08'0 0.0
2016-May-19 04:18N 46°54' W 002°08'0 0.0
2016-May-19 03:21N 46°54' W 002°08'0 0.0
2016-May-19 02:33N 46°54' W 002°08'0 0.0
2016-May-19 01:30N 46°54' W 002°08'0 0.0
2016-May-19 00:33N 46°54' W 002°08'0 0.0
2016-May-18 23:24N 46°54' W 002°08'0 0.0
2016-May-18 22:27N 46°54' W 002°08'0 0.0
2016-May-18 21:30N 46°54' W 002°08'0 0.0
2016-May-18 20:27N 46°54' W 002°08'0 0.0
2016-May-18 19:33N 46°54' W 002°08'0 0.0
2016-May-18 18:30N 46°54' W 002°08'0 0.0
2016-May-18 16:33N 46°54' W 002°08'6 1.4
2016-May-18 12:12N 46°49' W 002°15'6 9.8
2016-May-18 11:34N 46°54' W 002°08'0 0.0
2016-May-18 10:34N 46°54' W 002°08'0 0.0
2016-May-18 09:32N 46°54' W 002°08'0 0.0
2016-May-18 08:29N 46°54' W 002°08'0 0.0
2016-May-18 07:32N 46°54' W 002°08'0 0.0
2016-May-18 06:32N 46°54' W 002°08'0 0.0
2016-May-18 05:32N 46°54' W 002°08'0 0.0
2016-May-18 04:32N 46°54' W 002°08'0 0.0
2016-May-18 03:32N 46°54' W 002°08'0 0.0
2016-May-18 02:32N 46°54' W 002°08'0 0.0
2016-May-18 01:32N 46°54' W 002°08'0 0.0
2016-May-18 00:32N 46°54' W 002°08'0 0.0
2016-May-17 23:26N 46°54' W 002°08'0 0.0
2016-May-17 22:32N 46°54' W 002°08'2 0.2
2016-May-17 11:16N 46°53' W 002°12'2 0.5
2016-May-17 06:33N 46°54' W 002°08'0 0.0
2016-May-17 05:30N 46°54' W 002°08'0 0.0
2016-May-17 04:33N 46°54' W 002°08'0 0.0
2016-May-17 03:24N 46°54' W 002°08'0 0.0
2016-May-16 23:18N 46°54' W 002°08'0 0.0
2016-May-16 18:33N 46°54' W 002°08'0 0.0
2016-May-16 17:33N 46°54' W 002°08'0 0.0
2016-May-16 16:33N 46°54' W 002°08'0 0.0
2016-May-16 15:33N 46°54' W 002°08'0 0.0
2016-May-16 14:30N 46°54' W 002°08'  
Track history (hours):
 
Tides and Currents Weather Stations Pressure Air Temp Water Temp Dewpoint Dewpoint Depression Visibility Wind Speed Wind Dir Waves Ship Positions

Insula Oya 2

Last reported at 2016-May-26 06:22 UTC. Time now 2016-May-26 06:54 UTC.
Position N 46°44' W 002°21'.

Length 50 m; draft 2.5 m.

Type: Passenger vessel. MMSI: 227004900.

Date/timePositionNaut miles runAvg speedWind from/ knotsBaromVisibWave heightAir tempDewpointWater temp
2016-May-26 06:22N 46°44' W 002°21'1113.3
2016-May-26 05:33N 46°53' W 002°12'3 2.6
2016-May-26 04:33N 46°54' W 002°08'0 0.0
2016-May-26 03:32N 46°54' W 002°08'0 0.0
2016-May-26 02:32N 46°54' W 002°08'0 0.0
2016-May-26 01:32N 46°54' W 002°08'0 0.0
2016-May-26 00:32N 46°54' W 002°08'0 0.0
2016-May-25 23:32N 46°54' W 002°08'0 0.0
2016-May-25 22:32N 46°54' W 002°08'0 0.0
2016-May-25 21:32N 46°54' W 002°08'0 0.0
2016-May-25 20:32N 46°54' W 002°08'0 0.0
2016-May-25 19:32N 46°54' W 002°08'0 0.0
2016-May-25 18:32N 46°54' W 002°08'0 0.0
2016-May-25 17:32N 46°54' W 002°08'0 0.0
2016-May-25 16:21N 46°54' W 002°08'9 0.9
2016-May-25 06:04N 46°47' W 002°17'713.7
2016-May-25 05:33N 46°53' W 002°12'2 2.5
2016-May-25 04:33N 46°54' W 002°08'0 0.0
2016-May-25 03:32N 46°54' W 002°08'0 0.0
2016-May-25 02:32N 46°54' W 002°08'0 0.0
2016-May-25 01:32N 46°54' W 002°08'0 0.0
2016-May-25 00:32N 46°54' W 002°08'0 0.0
2016-May-24 23:32N 46°54' W 002°08'0 0.0
2016-May-24 22:32N 46°54' W 002°08'0 0.0
2016-May-24 21:32N 46°54' W 002°08'0 0.0
2016-May-24 20:32N 46°54' W 002°08'0 0.0
2016-May-24 19:32N 46°54' W 002°08'0 0.0
2016-May-24 18:32N 46°54' W 002°08'0 0.0
2016-May-24 17:32N 46°54' W 002°08'0 0.0
2016-May-24 16:32N 46°54' W 002°08'1 0.9
2016-May-24 15:33N 46°54' W 002°10'9 1.0
2016-May-24 06:08N 46°46' W 002°18'813.8
2016-May-24 05:34N 46°53' W 002°12'2 2.3
2016-May-24 04:34N 46°54' W 002°08'0 0.0
2016-May-24 03:32N 46°54' W 002°08'0 0.0
2016-May-24 02:32N 46°54' W 002°08'0 0.0
2016-May-24 01:29N 46°54' W 002°08'0 0.0
2016-May-24 00:32N 46°54' W 002°08'0 0.0
2016-May-23 23:32N 46°54' W 002°08'0 0.0
2016-May-23 22:32N 46°54' W 002°08'0 0.0
2016-May-23 21:29N 46°54' W 002°08'0 0.0
2016-May-23 20:32N 46°54' W 002°08'0 0.0
2016-May-23 19:32N 46°54' W 002°08'0 0.0
2016-May-23 18:32N 46°54' W 002°08'0 0.0
2016-May-23 17:32N 46°54' W 002°08'0 0.0
2016-May-23 16:20N 46°54' W 002°08'0 0.0
2016-May-23 15:32N 46°54' W 002°08'6 6.6
2016-May-23 14:33N 46°49' W 002°15'  
2016-May-21 05:33N 46°45' W 002°20'1211.8
2016-May-21 04:34N 46°54' W 002°08'0 0.0
2016-May-21 03:34N 46°54' W 002°08'0 0.0
2016-May-21 02:31N 46°54' W 002°08'0 0.0
2016-May-21 01:31N 46°54' W 002°08'0 0.0
2016-May-21 00:31N 46°54' W 002°08'0 0.0
2016-May-20 23:31N 46°54' W 002°08'0 0.0
2016-May-20 22:31N 46°54' W 002°08'0 0.0
2016-May-20 21:31N 46°54' W 002°08'0 0.0
2016-May-20 20:31N 46°54' W 002°08'0 0.0
2016-May-20 19:31N 46°54' W 002°08'0 0.0
2016-May-20 18:31N 46°54' W 002°08'0 0.0
2016-May-20 17:28N 46°54' W 002°08'0 0.0
2016-May-20 16:31N 46°54' W 002°08'0 0.0
2016-May-20 15:28N 46°54' W 002°08'0 0.0
2016-May-20 14:28N 46°54' W 002°08'7 7.0
2016-May-20 13:32N 46°49' W 002°15'0 0.0
2016-May-20 04:33N 46°49' W 002°15'7 6.8
2016-May-20 03:34N 46°54' W 002°08'0 0.0
2016-May-20 02:31N 46°54' W 002°08'0 0.0
2016-May-20 01:31N 46°54' W 002°08'0 0.0
2016-May-20 00:28N 46°54' W 002°08'0 0.0
2016-May-19 23:31N 46°54' W 002°08'0 0.0
2016-May-19 22:31N 46°54' W 002°08'0 0.0
2016-May-19 21:31N 46°54' W 002°08'0 0.0
2016-May-19 20:31N 46°54' W 002°08'0 0.0
2016-May-19 19:31N 46°54' W 002°08'0 0.0
2016-May-19 18:34N 46°54' W 002°08'0 0.0
2016-May-19 17:31N 46°54' W 002°08'2 0.4
2016-May-19 12:29N 46°53' W 002°11'2 2.0
2016-May-19 11:33N 46°54' W 002°08'0 0.0
2016-May-19 10:33N 46°54' W 002°08'0 0.0
2016-May-19 09:33N 46°54' W 002°08'0 0.0
2016-May-19 08:30N 46°54' W 002°08'0 0.0
2016-May-19 07:33N 46°54' W 002°08'0 0.0
2016-May-19 06:15N 46°54' W 002°08'0 0.0
2016-May-19 05:33N 46°54' W 002°08'0 0.0
2016-May-19 04:18N 46°54' W 002°08'0 0.0
2016-May-19 03:21N 46°54' W 002°08'0 0.0
2016-May-19 02:33N 46°54' W 002°08'0 0.0
2016-May-19 01:30N 46°54' W 002°08'0 0.0
2016-May-19 00:33N 46°54' W 002°08'0 0.0
2016-May-18 23:24N 46°54' W 002°08'0 0.0
2016-May-18 22:27N 46°54' W 002°08'0 0.0
2016-May-18 21:30N 46°54' W 002°08'0 0.0
2016-May-18 20:27N 46°54' W 002°08'0 0.0
2016-May-18 19:33N 46°54' W 002°08'0 0.0
2016-May-18 18:30N 46°54' W 002°08'0 0.0
2016-May-18 16:33N 46°54' W 002°08'6 1.4
2016-May-18 12:12N 46°49' W 002°15'6 9.8
2016-May-18 11:34N 46°54' W 002°08'0 0.0
2016-May-18 10:34N 46°54' W 002°08'0 0.0
2016-May-18 09:32N 46°54' W 002°08'0 0.0
2016-May-18 08:29N 46°54' W 002°08'0 0.0
2016-May-18 07:32N 46°54' W 002°08'0 0.0
2016-May-18 06:32N 46°54' W 002°08'0 0.0
2016-May-18 05:32N 46°54' W 002°08'0 0.0
2016-May-18 04:32N 46°54' W 002°08'0 0.0
2016-May-18 03:32N 46°54' W 002°08'0 0.0
2016-May-18 02:32N 46°54' W 002°08'0 0.0
2016-May-18 01:32N 46°54' W 002°08'0 0.0
2016-May-18 00:32N 46°54' W 002°08'0 0.0
2016-May-17 23:26N 46°54' W 002°08'0 0.0
2016-May-17 22:32N 46°54' W 002°08'2 0.2
2016-May-17 11:16N 46°53' W 002°12'2 0.5
2016-May-17 06:33N 46°54' W 002°08'0 0.0
2016-May-17 05:30N 46°54' W 002°08'0 0.0
2016-May-17 04:33N 46°54' W 002°08'0 0.0
2016-May-17 03:24N 46°54' W 002°08'0 0.0
2016-May-16 23:18N 46°54' W 002°08'0 0.0
2016-May-16 18:33N 46°54' W 002°08'0 0.0
2016-May-16 17:33N 46°54' W 002°08'0 0.0
2016-May-16 16:33N 46°54' W 002°08'0 0.0
2016-May-16 15:33N 46°54' W 002°08'0 0.0
2016-May-16 14:30N 46°54' W 002°08'  

Dump ship's entire track history